sensor_id;sensor_type;location;lat;lon;timestamp;P1;durP1;ratioP1;P2;durP2;ratioP2
29416;SDS011;28421;51.030;4.006;2023-02-15T00:01:35;31.60;;;18.58;;
29416;SDS011;28421;51.030;4.006;2023-02-15T00:04:02;33.38;;;20.05;;
29416;SDS011;28421;51.030;4.006;2023-02-15T00:06:28;35.30;;;20.25;;
29416;SDS011;28421;51.030;4.006;2023-02-15T00:08:54;43.45;;;23.10;;
29416;SDS011;28421;51.030;4.006;2023-02-15T00:11:20;43.53;;;23.70;;
29416;SDS011;28421;51.030;4.006;2023-02-15T00:14:18;54.50;;;26.90;;
29416;SDS011;28421;51.030;4.006;2023-02-15T00:16:45;45.97;;;23.77;;
29416;SDS011;28421;51.030;4.006;2023-02-15T00:19:11;53.03;;;26.85;;
29416;SDS011;28421;51.030;4.006;2023-02-15T00:21:39;51.15;;;25.52;;
29416;SDS011;28421;51.030;4.006;2023-02-15T00:24:06;39.72;;;22.48;;
29416;SDS011;28421;51.030;4.006;2023-02-15T00:26:34;45.00;;;25.08;;
29416;SDS011;28421;51.030;4.006;2023-02-15T00:29:00;49.10;;;25.67;;
29416;SDS011;28421;51.030;4.006;2023-02-15T00:31:26;40.38;;;24.45;;
29416;SDS011;28421;51.030;4.006;2023-02-15T05:37:30;50.67;;;27.10;;
29416;SDS011;28421;51.030;4.006;2023-02-15T05:39:55;54.05;;;29.38;;
29416;SDS011;28421;51.030;4.006;2023-02-15T05:42:21;52.55;;;30.20;;
29416;SDS011;28421;51.030;4.006;2023-02-15T05:44:46;50.40;;;28.88;;
29416;SDS011;28421;51.030;4.006;2023-02-15T05:47:12;53.08;;;29.42;;
29416;SDS011;28421;51.030;4.006;2023-02-15T05:49:37;48.60;;;28.60;;
29416;SDS011;28421;51.030;4.006;2023-02-15T05:52:03;58.90;;;29.63;;
29416;SDS011;28421;51.030;4.006;2023-02-15T05:54:29;49.28;;;26.67;;
29416;SDS011;28421;51.030;4.006;2023-02-15T05:56:54;50.03;;;27.50;;
29416;SDS011;28421;51.030;4.006;2023-02-15T05:59:20;64.03;;;31.25;;
29416;SDS011;28421;51.030;4.006;2023-02-15T06:01:45;53.20;;;28.10;;
29416;SDS011;28421;51.030;4.006;2023-02-15T06:04:10;53.65;;;27.88;;
29416;SDS011;28421;51.030;4.006;2023-02-15T06:06:37;46.70;;;27.75;;
29416;SDS011;28421;51.030;4.006;2023-02-15T06:09:02;59.40;;;29.83;;
29416;SDS011;28421;51.030;4.006;2023-02-15T06:11:28;59.28;;;29.73;;
29416;SDS011;28421;51.030;4.006;2023-02-15T06:13:53;48.22;;;26.38;;
29416;SDS011;28421;51.030;4.006;2023-02-15T06:16:19;56.25;;;29.52;;
29416;SDS011;28421;51.030;4.006;2023-02-15T06:18:44;53.58;;;27.17;;
29416;SDS011;28421;51.030;4.006;2023-02-15T06:21:09;45.45;;;27.20;;
29416;SDS011;28421;51.030;4.006;2023-02-15T06:23:35;54.67;;;28.65;;
29416;SDS011;28421;51.030;4.006;2023-02-15T06:26:00;48.88;;;27.23;;
29416;SDS011;28421;51.030;4.006;2023-02-15T06:28:26;56.75;;;30.95;;
29416;SDS011;28421;51.030;4.006;2023-02-15T06:30:51;56.90;;;28.90;;
29416;SDS011;28421;51.030;4.006;2023-02-15T06:33:17;57.05;;;31.67;;
29416;SDS011;28421;51.030;4.006;2023-02-15T06:35:42;43.53;;;25.33;;
29416;SDS011;28421;51.030;4.006;2023-02-15T06:38:08;44.45;;;26.10;;
29416;SDS011;28421;51.030;4.006;2023-02-15T06:40:33;35.75;;;24.17;;
29416;SDS011;28421;51.030;4.006;2023-02-15T06:42:59;37.85;;;25.88;;
29416;SDS011;28421;51.030;4.006;2023-02-15T06:45:24;34.47;;;22.55;;
29416;SDS011;28421;51.030;4.006;2023-02-15T06:47:49;35.38;;;22.55;;
29416;SDS011;28421;51.030;4.006;2023-02-15T06:50:15;34.22;;;22.35;;
29416;SDS011;28421;51.030;4.006;2023-02-15T06:52:40;38.90;;;23.02;;
29416;SDS011;28421;51.030;4.006;2023-02-15T06:55:06;38.45;;;23.27;;
29416;SDS011;28421;51.030;4.006;2023-02-15T06:57:32;36.33;;;23.58;;
29416;SDS011;28421;51.030;4.006;2023-02-15T06:59:58;39.90;;;26.05;;
29416;SDS011;28421;51.030;4.006;2023-02-15T07:02:24;46.95;;;26.33;;
29416;SDS011;28421;51.030;4.006;2023-02-15T07:04:49;41.00;;;26.05;;
29416;SDS011;28421;51.030;4.006;2023-02-15T07:07:15;46.75;;;25.05;;
29416;SDS011;28421;51.030;4.006;2023-02-15T07:09:40;43.42;;;25.42;;
29416;SDS011;28421;51.030;4.006;2023-02-15T07:12:06;40.03;;;25.50;;
29416;SDS011;28421;51.030;4.006;2023-02-15T07:14:50;35.13;;;23.42;;
29416;SDS011;28421;51.030;4.006;2023-02-15T07:17:16;50.78;;;27.80;;
29416;SDS011;28421;51.030;4.006;2023-02-15T07:19:42;43.75;;;25.95;;
29416;SDS011;28421;51.030;4.006;2023-02-15T07:22:08;48.83;;;26.38;;
29416;SDS011;28421;51.030;4.006;2023-02-15T07:24:33;43.25;;;26.08;;
29416;SDS011;28421;51.030;4.006;2023-02-15T07:26:59;43.08;;;24.48;;
29416;SDS011;28421;51.030;4.006;2023-02-15T07:29:24;51.17;;;28.35;;
29416;SDS011;28421;51.030;4.006;2023-02-15T07:31:50;48.78;;;25.38;;
29416;SDS011;28421;51.030;4.006;2023-02-15T07:34:15;62.47;;;30.10;;
29416;SDS011;28421;51.030;4.006;2023-02-15T07:36:41;54.63;;;30.10;;
29416;SDS011;28421;51.030;4.006;2023-02-15T07:39:09;55.20;;;31.02;;
29416;SDS011;28421;51.030;4.006;2023-02-15T07:41:35;56.17;;;31.23;;
29416;SDS011;28421;51.030;4.006;2023-02-15T07:44:00;59.17;;;30.33;;
29416;SDS011;28421;51.030;4.006;2023-02-15T07:46:26;63.10;;;29.30;;
29416;SDS011;28421;51.030;4.006;2023-02-15T07:48:51;62.80;;;31.17;;
29416;SDS011;28421;51.030;4.006;2023-02-15T07:51:17;51.55;;;30.50;;
29416;SDS011;28421;51.030;4.006;2023-02-15T07:53:42;64.70;;;30.58;;
29416;SDS011;28421;51.030;4.006;2023-02-15T07:56:11;60.33;;;32.95;;
29416;SDS011;28421;51.030;4.006;2023-02-15T07:58:38;56.00;;;30.52;;
29416;SDS011;28421;51.030;4.006;2023-02-15T08:01:16;61.53;;;30.98;;
29416;SDS011;28421;51.030;4.006;2023-02-15T08:03:49;68.50;;;32.90;;
29416;SDS011;28421;51.030;4.006;2023-02-15T08:06:15;62.80;;;32.65;;
29416;SDS011;28421;51.030;4.006;2023-02-15T08:08:42;63.58;;;34.15;;
29416;SDS011;28421;51.030;4.006;2023-02-15T08:11:21;76.68;;;34.45;;
29416;SDS011;28421;51.030;4.006;2023-02-15T08:14:13;74.97;;;33.00;;
29416;SDS011;28421;51.030;4.006;2023-02-15T08:21:42;63.28;;;33.22;;
29416;SDS011;28421;51.030;4.006;2023-02-15T08:24:12;72.03;;;35.75;;
29416;SDS011;28421;51.030;4.006;2023-02-15T08:26:40;69.13;;;35.15;;
29416;SDS011;28421;51.030;4.006;2023-02-15T08:29:06;66.15;;;35.40;;
29416;SDS011;28421;51.030;4.006;2023-02-15T08:31:33;67.60;;;35.35;;
29416;SDS011;28421;51.030;4.006;2023-02-15T08:33:59;70.50;;;33.90;;
29416;SDS011;28421;51.030;4.006;2023-02-15T08:36:28;72.20;;;37.72;;
29416;SDS011;28421;51.030;4.006;2023-02-15T08:39:00;64.93;;;33.72;;
29416;SDS011;28421;51.030;4.006;2023-02-15T08:41:28;65.57;;;35.05;;
29416;SDS011;28421;51.030;4.006;2023-02-15T08:43:56;72.10;;;36.58;;
29416;SDS011;28421;51.030;4.006;2023-02-15T08:46:25;69.25;;;36.28;;
29416;SDS011;28421;51.030;4.006;2023-02-15T08:48:52;69.70;;;35.45;;
29416;SDS011;28421;51.030;4.006;2023-02-15T08:51:19;71.20;;;35.00;;
29416;SDS011;28421;51.030;4.006;2023-02-15T08:54:06;75.18;;;37.92;;
29416;SDS011;28421;51.030;4.006;2023-02-15T08:56:38;66.93;;;35.70;;
29416;SDS011;28421;51.030;4.006;2023-02-15T08:59:05;75.70;;;37.25;;
29416;SDS011;28421;51.030;4.006;2023-02-15T09:01:33;73.22;;;39.88;;
29416;SDS011;28421;51.030;4.006;2023-02-15T09:04:00;80.10;;;38.33;;
29416;SDS011;28421;51.030;4.006;2023-02-15T09:06:27;78.38;;;38.63;;
29416;SDS011;28421;51.030;4.006;2023-02-15T09:08:53;70.78;;;38.38;;
29416;SDS011;28421;51.030;4.006;2023-02-15T09:11:30;73.93;;;35.85;;
29416;SDS011;28421;51.030;4.006;2023-02-15T09:13:59;81.10;;;38.50;;
29416;SDS011;28421;51.030;4.006;2023-02-15T09:16:28;79.00;;;40.05;;
29416;SDS011;28421;51.030;4.006;2023-02-15T09:18:55;81.55;;;38.88;;
29416;SDS011;28421;51.030;4.006;2023-02-15T09:21:26;84.82;;;40.05;;
29416;SDS011;28421;51.030;4.006;2023-02-15T09:23:57;88.25;;;41.50;;
29416;SDS011;28421;51.030;4.006;2023-02-15T09:26:25;81.00;;;37.67;;
29416;SDS011;28421;51.030;4.006;2023-02-15T09:28:52;82.80;;;39.55;;
29416;SDS011;28421;51.030;4.006;2023-02-15T09:31:24;77.30;;;36.35;;
29416;SDS011;28421;51.030;4.006;2023-02-15T09:33:52;72.75;;;37.85;;
29416;SDS011;28421;51.030;4.006;2023-02-15T09:36:24;78.10;;;38.70;;
29416;SDS011;28421;51.030;4.006;2023-02-15T09:38:56;74.20;;;36.97;;
29416;SDS011;28421;51.030;4.006;2023-02-15T09:50:57;62.72;;;30.95;;
29416;SDS011;28421;51.030;4.006;2023-02-15T09:53:29;68.72;;;32.83;;
29416;SDS011;28421;51.030;4.006;2023-02-15T09:56:19;64.78;;;31.77;;
29416;SDS011;28421;51.030;4.006;2023-02-15T10:04:09;75.68;;;30.77;;
29416;SDS011;28421;51.030;4.006;2023-02-15T10:09:35;78.68;;;31.65;;
29416;SDS011;28421;51.030;4.006;2023-02-15T10:15:16;64.15;;;32.05;;
29416;SDS011;28421;51.030;4.006;2023-02-15T10:25:45;68.82;;;31.42;;
29416;SDS011;28421;51.030;4.006;2023-02-15T10:28:30;67.05;;;29.45;;
29416;SDS011;28421;51.030;4.006;2023-02-15T10:31:08;66.88;;;31.58;;
29416;SDS011;28421;51.030;4.006;2023-02-15T10:33:48;56.78;;;28.45;;
29416;SDS011;28421;51.030;4.006;2023-02-15T10:39:27;70.40;;;31.17;;
29416;SDS011;28421;51.030;4.006;2023-02-15T10:50:07;62.95;;;28.88;;
29416;SDS011;28421;51.030;4.006;2023-02-15T10:55:44;56.47;;;27.95;;
29416;SDS011;28421;51.030;4.006;2023-02-15T10:58:49;52.78;;;24.88;;
29416;SDS011;28421;51.030;4.006;2023-02-15T11:06:43;51.15;;;26.13;;
29416;SDS011;28421;51.030;4.006;2023-02-15T11:09:16;57.78;;;26.13;;
29416;SDS011;28421;51.030;4.006;2023-02-15T11:11:47;55.00;;;27.60;;
29416;SDS011;28421;51.030;4.006;2023-02-15T11:17:12;55.10;;;27.10;;
29416;SDS011;28421;51.030;4.006;2023-02-15T11:19:50;51.88;;;24.05;;
29416;SDS011;28421;51.030;4.006;2023-02-15T11:22:17;54.67;;;28.35;;
29416;SDS011;28421;51.030;4.006;2023-02-15T11:24:43;48.58;;;26.25;;
29416;SDS011;28421;51.030;4.006;2023-02-15T11:27:21;53.45;;;26.50;;
29416;SDS011;28421;51.030;4.006;2023-02-15T11:30:10;54.92;;;25.92;;
29416;SDS011;28421;51.030;4.006;2023-02-15T11:32:43;54.10;;;25.92;;
29416;SDS011;28421;51.030;4.006;2023-02-15T11:42:51;56.58;;;26.52;;
29416;SDS011;28421;51.030;4.006;2023-02-15T11:45:41;58.95;;;27.08;;
29416;SDS011;28421;51.030;4.006;2023-02-15T11:48:09;55.65;;;26.33;;
29416;SDS011;28421;51.030;4.006;2023-02-15T11:50:36;54.63;;;27.13;;
29416;SDS011;28421;51.030;4.006;2023-02-15T11:53:03;51.38;;;25.73;;
29416;SDS011;28421;51.030;4.006;2023-02-15T11:55:34;53.58;;;25.98;;
29416;SDS011;28421;51.030;4.006;2023-02-15T11:58:02;50.40;;;27.33;;
29416;SDS011;28421;51.030;4.006;2023-02-15T12:00:38;62.38;;;27.83;;
29416;SDS011;28421;51.030;4.006;2023-02-15T12:03:20;57.03;;;28.20;;
29416;SDS011;28421;51.030;4.006;2023-02-15T12:05:49;63.83;;;27.70;;
29416;SDS011;28421;51.030;4.006;2023-02-15T12:08:19;56.13;;;28.65;;
29416;SDS011;28421;51.030;4.006;2023-02-15T12:10:56;58.38;;;26.80;;
29416;SDS011;28421;51.030;4.006;2023-02-15T12:13:25;62.33;;;29.23;;
29416;SDS011;28421;51.030;4.006;2023-02-15T12:15:52;60.25;;;29.08;;
29416;SDS011;28421;51.030;4.006;2023-02-15T12:18:34;52.75;;;27.20;;
29416;SDS011;28421;51.030;4.006;2023-02-15T12:23:52;55.63;;;28.90;;
29416;SDS011;28421;51.030;4.006;2023-02-15T12:26:24;53.60;;;26.35;;
29416;SDS011;28421;51.030;4.006;2023-02-15T12:28:52;51.28;;;27.23;;
29416;SDS011;28421;51.030;4.006;2023-02-15T12:31:32;56.17;;;27.98;;
29416;SDS011;28421;51.030;4.006;2023-02-15T12:34:03;61.88;;;30.02;;
29416;SDS011;28421;51.030;4.006;2023-02-15T12:36:54;49.65;;;25.88;;
29416;SDS011;28421;51.030;4.006;2023-02-15T12:39:25;57.83;;;26.88;;
29416;SDS011;28421;51.030;4.006;2023-02-15T12:44:31;54.70;;;28.23;;
29416;SDS011;28421;51.030;4.006;2023-02-15T12:47:06;56.47;;;28.45;;
29416;SDS011;28421;51.030;4.006;2023-02-15T12:49:42;62.65;;;29.00;;
29416;SDS011;28421;51.030;4.006;2023-02-15T12:54:45;58.60;;;28.27;;
29416;SDS011;28421;51.030;4.006;2023-02-15T12:57:20;49.40;;;25.85;;
29416;SDS011;28421;51.030;4.006;2023-02-15T13:02:50;55.67;;;28.63;;
29416;SDS011;28421;51.030;4.006;2023-02-15T13:13:29;54.40;;;26.92;;
29416;SDS011;28421;51.030;4.006;2023-02-15T13:16:15;55.80;;;27.33;;
29416;SDS011;28421;51.030;4.006;2023-02-15T13:18:45;62.92;;;28.80;;
29416;SDS011;28421;51.030;4.006;2023-02-15T13:23:46;59.58;;;29.88;;
29416;SDS011;28421;51.030;4.006;2023-02-15T13:26:17;53.35;;;27.75;;
29416;SDS011;28421;51.030;4.006;2023-02-15T13:28:47;46.22;;;24.88;;
29416;SDS011;28421;51.030;4.006;2023-02-15T13:31:20;66.15;;;28.65;;
29416;SDS011;28421;51.030;4.006;2023-02-15T13:36:57;64.55;;;28.83;;
29416;SDS011;28421;51.030;4.006;2023-02-15T13:53:01;55.85;;;27.98;;
29416;SDS011;28421;51.030;4.006;2023-02-15T13:55:52;59.28;;;29.35;;
29416;SDS011;28421;51.030;4.006;2023-02-15T14:07:00;48.45;;;26.20;;
29416;SDS011;28421;51.030;4.006;2023-02-15T14:17:28;56.88;;;26.42;;
29416;SDS011;28421;51.030;4.006;2023-02-15T14:23:33;58.58;;;26.00;;
29416;SDS011;28421;51.030;4.006;2023-02-15T14:31:30;49.47;;;26.85;;
29416;SDS011;28421;51.030;4.006;2023-02-15T14:34:02;49.08;;;25.80;;
29416;SDS011;28421;51.030;4.006;2023-02-15T14:36:29;55.60;;;26.20;;
29416;SDS011;28421;51.030;4.006;2023-02-15T14:42:09;45.95;;;24.08;;
29416;SDS011;28421;51.030;4.006;2023-02-15T14:44:43;49.65;;;25.15;;
29416;SDS011;28421;51.030;4.006;2023-02-15T14:47:22;55.80;;;25.45;;
29416;SDS011;28421;51.030;4.006;2023-02-15T14:49:53;50.20;;;24.65;;
29416;SDS011;28421;51.030;4.006;2023-02-15T14:52:18;52.88;;;22.60;;
29416;SDS011;28421;51.030;4.006;2023-02-15T15:02:09;45.13;;;23.35;;
29416;SDS011;28421;51.030;4.006;2023-02-15T15:12:45;48.17;;;23.25;;
29416;SDS011;28421;51.030;4.006;2023-02-15T15:25:45;53.45;;;25.00;;
29416;SDS011;28421;51.030;4.006;2023-02-15T15:30:59;52.08;;;27.52;;
29416;SDS011;28421;51.030;4.006;2023-02-15T15:41:42;51.00;;;26.02;;
29416;SDS011;28421;51.030;4.006;2023-02-15T15:49:58;64.40;;;28.27;;
29416;SDS011;28421;51.030;4.006;2023-02-15T15:52:25;55.35;;;26.85;;
29416;SDS011;28421;51.030;4.006;2023-02-15T15:54:54;57.63;;;27.48;;
29416;SDS011;28421;51.030;4.006;2023-02-15T15:57:30;54.00;;;27.75;;
29416;SDS011;28421;51.030;4.006;2023-02-15T16:00:00;52.55;;;26.90;;
29416;SDS011;28421;51.030;4.006;2023-02-15T16:02:25;54.03;;;29.85;;
29416;SDS011;28421;51.030;4.006;2023-02-15T16:04:51;56.50;;;28.17;;
29416;SDS011;28421;51.030;4.006;2023-02-15T16:12:24;54.25;;;26.52;;
29416;SDS011;28421;51.030;4.006;2023-02-15T16:14:51;53.58;;;26.42;;
29416;SDS011;28421;51.030;4.006;2023-02-15T16:17:20;50.75;;;25.80;;
29416;SDS011;28421;51.030;4.006;2023-02-15T16:19:47;50.70;;;27.10;;
29416;SDS011;28421;51.030;4.006;2023-02-15T16:22:18;57.35;;;29.63;;
29416;SDS011;28421;51.030;4.006;2023-02-15T16:27:34;59.80;;;29.13;;
29416;SDS011;28421;51.030;4.006;2023-02-15T16:35:34;58.85;;;28.25;;
29416;SDS011;28421;51.030;4.006;2023-02-15T16:38:02;54.42;;;28.85;;
29416;SDS011;28421;51.030;4.006;2023-02-15T16:42:54;58.42;;;27.30;;
29416;SDS011;28421;51.030;4.006;2023-02-15T16:45:25;52.47;;;29.17;;
29416;SDS011;28421;51.030;4.006;2023-02-15T16:47:53;56.88;;;28.27;;
29416;SDS011;28421;51.030;4.006;2023-02-15T16:50:55;64.35;;;29.73;;
29416;SDS011;28421;51.030;4.006;2023-02-15T16:53:22;50.08;;;27.30;;
29416;SDS011;28421;51.030;4.006;2023-02-15T16:55:51;61.17;;;28.23;;
29416;SDS011;28421;51.030;4.006;2023-02-15T16:58:22;64.63;;;29.40;;
29416;SDS011;28421;51.030;4.006;2023-02-15T17:00:51;55.10;;;27.90;;
29416;SDS011;28421;51.030;4.006;2023-02-15T17:03:22;59.80;;;28.77;;
29416;SDS011;28421;51.030;4.006;2023-02-15T17:05:51;58.15;;;29.77;;
29416;SDS011;28421;51.030;4.006;2023-02-15T17:08:23;60.97;;;30.58;;
29416;SDS011;28421;51.030;4.006;2023-02-15T17:18:25;65.93;;;32.33;;
29416;SDS011;28421;51.030;4.006;2023-02-15T17:20:53;70.28;;;31.67;;
29416;SDS011;28421;51.030;4.006;2023-02-15T17:25:56;62.92;;;32.55;;
29416;SDS011;28421;51.030;4.006;2023-02-15T17:28:24;87.30;;;41.88;;
29416;SDS011;28421;51.030;4.006;2023-02-15T17:30:52;86.93;;;44.17;;
29416;SDS011;28421;51.030;4.006;2023-02-15T17:33:21;81.90;;;39.80;;
29416;SDS011;28421;51.030;4.006;2023-02-15T17:36:12;72.40;;;36.30;;
29416;SDS011;28421;51.030;4.006;2023-02-15T17:39:06;71.32;;;32.30;;
29416;SDS011;28421;51.030;4.006;2023-02-15T17:41:44;64.78;;;32.58;;
29416;SDS011;28421;51.030;4.006;2023-02-15T17:44:12;68.90;;;32.97;;
29416;SDS011;28421;51.030;4.006;2023-02-15T17:46:40;75.15;;;35.03;;
29416;SDS011;28421;51.030;4.006;2023-02-15T17:49:06;71.10;;;34.80;;
29416;SDS011;28421;51.030;4.006;2023-02-15T17:51:32;73.70;;;36.50;;
29416;SDS011;28421;51.030;4.006;2023-02-15T17:54:00;69.13;;;35.53;;
29416;SDS011;28421;51.030;4.006;2023-02-15T17:56:45;75.40;;;36.33;;
29416;SDS011;28421;51.030;4.006;2023-02-15T17:59:11;82.00;;;37.90;;
29416;SDS011;28421;51.030;4.006;2023-02-15T18:01:41;65.70;;;33.17;;
29416;SDS011;28421;51.030;4.006;2023-02-15T18:04:29;62.53;;;31.90;;
29416;SDS011;28421;51.030;4.006;2023-02-15T18:07:15;72.55;;;33.25;;
29416;SDS011;28421;51.030;4.006;2023-02-15T18:10:02;60.38;;;32.95;;
29416;SDS011;28421;51.030;4.006;2023-02-15T18:12:54;65.53;;;31.98;;
29416;SDS011;28421;51.030;4.006;2023-02-15T18:15:20;67.07;;;34.40;;
29416;SDS011;28421;51.030;4.006;2023-02-15T18:17:45;61.28;;;31.48;;
29416;SDS011;28421;51.030;4.006;2023-02-15T18:20:17;64.93;;;32.13;;
29416;SDS011;28421;51.030;4.006;2023-02-15T18:22:53;73.95;;;33.72;;
29416;SDS011;28421;51.030;4.006;2023-02-15T18:25:19;80.68;;;34.88;;
29416;SDS011;28421;51.030;4.006;2023-02-15T18:27:47;67.13;;;32.55;;
29416;SDS011;28421;51.030;4.006;2023-02-15T18:30:17;76.22;;;35.15;;
29416;SDS011;28421;51.030;4.006;2023-02-15T18:32:44;63.65;;;33.33;;
29416;SDS011;28421;51.030;4.006;2023-02-15T18:35:13;61.78;;;31.70;;
29416;SDS011;28421;51.030;4.006;2023-02-15T18:37:40;66.72;;;34.83;;
29416;SDS011;28421;51.030;4.006;2023-02-15T18:40:09;69.30;;;34.83;;
29416;SDS011;28421;51.030;4.006;2023-02-15T18:42:42;62.13;;;32.15;;
29416;SDS011;28421;51.030;4.006;2023-02-15T18:45:19;63.65;;;32.40;;
29416;SDS011;28421;51.030;4.006;2023-02-15T18:47:48;65.70;;;31.73;;
29416;SDS011;28421;51.030;4.006;2023-02-15T18:50:16;69.10;;;34.78;;
29416;SDS011;28421;51.030;4.006;2023-02-15T18:52:44;73.95;;;34.30;;
29416;SDS011;28421;51.030;4.006;2023-02-15T18:55:18;65.45;;;34.30;;
29416;SDS011;28421;51.030;4.006;2023-02-15T18:57:46;62.13;;;31.35;;
29416;SDS011;28421;51.030;4.006;2023-02-15T19:00:14;64.82;;;32.10;;
29416;SDS011;28421;51.030;4.006;2023-02-15T19:02:45;63.20;;;33.88;;
29416;SDS011;28421;51.030;4.006;2023-02-15T19:05:12;58.47;;;32.53;;
29416;SDS011;28421;51.030;4.006;2023-02-15T19:07:39;63.67;;;31.67;;
29416;SDS011;28421;51.030;4.006;2023-02-15T19:10:55;64.13;;;31.50;;
29416;SDS011;28421;51.030;4.006;2023-02-15T19:13:24;63.33;;;32.60;;
29416;SDS011;28421;51.030;4.006;2023-02-15T19:16:27;68.10;;;32.00;;
29416;SDS011;28421;51.030;4.006;2023-02-15T19:18:53;66.07;;;33.15;;
29416;SDS011;28421;51.030;4.006;2023-02-15T19:21:18;65.68;;;32.35;;
29416;SDS011;28421;51.030;4.006;2023-02-15T19:23:52;62.38;;;33.05;;
29416;SDS011;28421;51.030;4.006;2023-02-15T19:26:22;67.05;;;34.60;;
29416;SDS011;28421;51.030;4.006;2023-02-15T19:28:48;63.97;;;32.80;;
29416;SDS011;28421;51.030;4.006;2023-02-15T19:31:14;62.15;;;32.45;;
29416;SDS011;28421;51.030;4.006;2023-02-15T19:33:42;66.65;;;34.83;;
29416;SDS011;28421;51.030;4.006;2023-02-15T19:36:27;66.60;;;30.45;;
29416;SDS011;28421;51.030;4.006;2023-02-15T19:39:39;66.88;;;32.67;;
29416;SDS011;28421;51.030;4.006;2023-02-15T19:46:33;66.35;;;31.50;;
29416;SDS011;28421;51.030;4.006;2023-02-15T19:49:51;70.18;;;32.97;;
29416;SDS011;28421;51.030;4.006;2023-02-15T19:53:14;69.00;;;33.10;;
29416;SDS011;28421;51.030;4.006;2023-02-15T19:55:44;61.55;;;31.98;;
29416;SDS011;28421;51.030;4.006;2023-02-15T19:58:10;68.20;;;33.28;;
29416;SDS011;28421;51.030;4.006;2023-02-15T20:00:43;70.72;;;33.28;;
29416;SDS011;28421;51.030;4.006;2023-02-15T20:03:09;70.53;;;35.75;;
29416;SDS011;28421;51.030;4.006;2023-02-15T20:05:35;68.32;;;34.88;;
29416;SDS011;28421;51.030;4.006;2023-02-15T20:08:06;58.83;;;32.33;;
29416;SDS011;28421;51.030;4.006;2023-02-15T20:10:36;69.35;;;34.33;;
29416;SDS011;28421;51.030;4.006;2023-02-15T20:13:25;82.32;;;35.90;;
29416;SDS011;28421;51.030;4.006;2023-02-15T20:15:53;72.38;;;33.13;;
29416;SDS011;28421;51.030;4.006;2023-02-15T20:18:18;73.90;;;35.75;;
29416;SDS011;28421;51.030;4.006;2023-02-15T20:20:48;66.03;;;34.30;;
29416;SDS011;28421;51.030;4.006;2023-02-15T20:23:20;70.22;;;35.67;;
29416;SDS011;28421;51.030;4.006;2023-02-15T20:25:48;72.78;;;35.45;;
29416;SDS011;28421;51.030;4.006;2023-02-15T20:28:15;70.55;;;33.78;;
29416;SDS011;28421;51.030;4.006;2023-02-15T20:30:42;69.53;;;35.10;;
29416;SDS011;28421;51.030;4.006;2023-02-15T20:33:08;67.15;;;35.35;;
29416;SDS011;28421;51.030;4.006;2023-02-15T20:35:44;69.22;;;32.92;;
29416;SDS011;28421;51.030;4.006;2023-02-15T20:38:16;66.90;;;33.85;;
29416;SDS011;28421;51.030;4.006;2023-02-15T20:40:44;64.35;;;32.28;;
29416;SDS011;28421;51.030;4.006;2023-02-15T20:43:33;70.10;;;35.35;;
29416;SDS011;28421;51.030;4.006;2023-02-15T20:45:59;80.13;;;36.83;;
29416;SDS011;28421;51.030;4.006;2023-02-15T20:49:07;69.90;;;36.17;;
29416;SDS011;28421;51.030;4.006;2023-02-15T20:51:54;69.35;;;34.97;;
29416;SDS011;28421;51.030;4.006;2023-02-15T20:54:25;61.17;;;33.67;;
29416;SDS011;28421;51.030;4.006;2023-02-15T20:56:56;78.95;;;35.58;;
29416;SDS011;28421;51.030;4.006;2023-02-15T21:02:42;63.75;;;31.55;;
29416;SDS011;28421;51.030;4.006;2023-02-15T21:05:14;67.72;;;34.28;;
29416;SDS011;28421;51.030;4.006;2023-02-15T21:07:47;73.82;;;35.38;;
29416;SDS011;28421;51.030;4.006;2023-02-15T21:10:18;80.30;;;37.33;;
29416;SDS011;28421;51.030;4.006;2023-02-15T21:12:46;70.00;;;35.20;;
29416;SDS011;28421;51.030;4.006;2023-02-15T21:17:53;72.35;;;35.83;;
29416;SDS011;28421;51.030;4.006;2023-02-15T21:20:19;67.53;;;34.50;;
29416;SDS011;28421;51.030;4.006;2023-02-15T21:22:45;66.63;;;35.13;;
29416;SDS011;28421;51.030;4.006;2023-02-15T21:25:16;75.78;;;36.78;;
29416;SDS011;28421;51.030;4.006;2023-02-15T21:28:10;74.55;;;35.17;;
29416;SDS011;28421;51.030;4.006;2023-02-15T21:30:41;70.22;;;35.13;;
29416;SDS011;28421;51.030;4.006;2023-02-15T21:33:06;72.50;;;36.05;;
29416;SDS011;28421;51.030;4.006;2023-02-15T21:35:31;70.35;;;36.67;;
29416;SDS011;28421;51.030;4.006;2023-02-15T21:38:15;62.55;;;34.15;;
29416;SDS011;28421;51.030;4.006;2023-02-15T21:40:43;76.50;;;36.80;;
29416;SDS011;28421;51.030;4.006;2023-02-15T21:43:16;67.85;;;33.47;;
29416;SDS011;28421;51.030;4.006;2023-02-15T21:46:13;70.50;;;35.42;;
29416;SDS011;28421;51.030;4.006;2023-02-15T21:49:00;70.18;;;32.92;;
29416;SDS011;28421;51.030;4.006;2023-02-15T21:51:26;77.55;;;35.58;;
29416;SDS011;28421;51.030;4.006;2023-02-15T21:56:41;63.35;;;33.40;;
29416;SDS011;28421;51.030;4.006;2023-02-15T21:59:10;72.68;;;36.50;;
29416;SDS011;28421;51.030;4.006;2023-02-15T22:01:36;64.43;;;34.53;;
29416;SDS011;28421;51.030;4.006;2023-02-15T22:04:09;84.15;;;38.83;;
29416;SDS011;28421;51.030;4.006;2023-02-15T22:06:37;73.32;;;36.90;;
29416;SDS011;28421;51.030;4.006;2023-02-15T22:09:10;67.30;;;35.00;;
29416;SDS011;28421;51.030;4.006;2023-02-15T22:11:40;69.32;;;35.00;;
29416;SDS011;28421;51.030;4.006;2023-02-15T22:14:05;73.35;;;35.10;;
29416;SDS011;28421;51.030;4.006;2023-02-15T22:16:31;67.45;;;36.63;;
29416;SDS011;28421;51.030;4.006;2023-02-15T22:19:09;66.32;;;33.83;;
29416;SDS011;28421;51.030;4.006;2023-02-15T22:21:35;67.68;;;34.78;;
29416;SDS011;28421;51.030;4.006;2023-02-15T22:24:01;76.85;;;36.65;;
29416;SDS011;28421;51.030;4.006;2023-02-15T22:26:26;72.93;;;36.15;;
29416;SDS011;28421;51.030;4.006;2023-02-15T22:28:52;71.18;;;35.72;;
29416;SDS011;28421;51.030;4.006;2023-02-15T22:31:18;69.55;;;36.45;;
29416;SDS011;28421;51.030;4.006;2023-02-15T22:33:45;68.63;;;34.03;;
29416;SDS011;28421;51.030;4.006;2023-02-15T22:36:23;73.45;;;36.90;;
29416;SDS011;28421;51.030;4.006;2023-02-15T22:38:51;72.90;;;38.35;;
29416;SDS011;28421;51.030;4.006;2023-02-15T22:41:18;80.80;;;37.50;;
29416;SDS011;28421;51.030;4.006;2023-02-15T22:43:44;77.00;;;36.50;;
29416;SDS011;28421;51.030;4.006;2023-02-15T22:46:21;83.70;;;39.92;;
29416;SDS011;28421;51.030;4.006;2023-02-15T22:48:48;73.40;;;35.63;;
29416;SDS011;28421;51.030;4.006;2023-02-15T22:51:14;67.50;;;36.55;;
29416;SDS011;28421;51.030;4.006;2023-02-15T22:53:41;67.30;;;34.15;;
29416;SDS011;28421;51.030;4.006;2023-02-15T22:56:08;74.90;;;36.90;;
29416;SDS011;28421;51.030;4.006;2023-02-15T22:58:41;77.73;;;38.20;;
29416;SDS011;28421;51.030;4.006;2023-02-15T23:01:09;73.28;;;37.47;;
29416;SDS011;28421;51.030;4.006;2023-02-15T23:03:59;74.95;;;37.20;;
29416;SDS011;28421;51.030;4.006;2023-02-15T23:06:25;77.65;;;39.53;;
29416;SDS011;28421;51.030;4.006;2023-02-15T23:08:50;84.55;;;43.42;;
29416;SDS011;28421;51.030;4.006;2023-02-15T23:11:16;75.05;;;38.13;;
29416;SDS011;28421;51.030;4.006;2023-02-15T23:13:42;77.95;;;38.80;;
29416;SDS011;28421;51.030;4.006;2023-02-15T23:16:11;69.10;;;36.55;;
29416;SDS011;28421;51.030;4.006;2023-02-15T23:18:40;78.15;;;37.60;;
29416;SDS011;28421;51.030;4.006;2023-02-15T23:21:18;84.28;;;40.08;;